createdAt,value
2022-11-06T00:00:31.039Z,59.80
2022-11-06T00:01:33.564Z,59.47
2022-11-06T00:02:35.401Z,58.60
2022-11-06T00:03:37.775Z,57.76
2022-11-06T00:04:39.460Z,57.84
2022-11-06T00:06:01.063Z,58.38
2022-11-06T00:07:02.849Z,60.35
2022-11-06T00:08:04.739Z,61.05
2022-11-06T00:09:10.462Z,62.01
2022-11-06T00:10:13.719Z,64.14
2022-11-06T00:11:17.681Z,65.54
2022-11-06T00:12:19.444Z,65.46
2022-11-06T00:13:21.217Z,64.92
2022-11-06T00:14:23.110Z,63.98
2022-11-06T00:15:24.840Z,63.07
2022-11-06T00:16:26.659Z,62.27
2022-11-06T00:17:28.964Z,61.44
2022-11-06T00:18:30.929Z,60.81
2022-11-06T00:19:32.666Z,60.10
2022-11-06T00:20:34.490Z,59.62
2022-11-06T00:21:37.115Z,58.97
2022-11-06T00:22:38.809Z,57.97
2022-11-06T00:23:41.251Z,57.84
2022-11-06T00:24:42.993Z,58.34
2022-11-06T00:25:44.711Z,59.47
2022-11-06T00:26:49.926Z,60.54
2022-11-06T00:27:55.869Z,61.63
2022-11-06T00:29:00.287Z,62.69
2022-11-06T00:30:05.402Z,64.63
2022-11-06T00:31:12.284Z,66.03
2022-11-06T00:32:14.093Z,65.89
2022-11-06T00:33:15.857Z,65.17
2022-11-06T00:34:17.786Z,64.22
2022-11-06T00:35:19.493Z,62.95
2022-11-06T00:36:23.073Z,62.33
2022-11-06T00:37:24.894Z,61.53
2022-11-06T00:38:26.608Z,60.77
2022-11-06T00:39:28.343Z,60.24
2022-11-06T00:40:30.112Z,59.73
2022-11-06T00:41:31.807Z,59.18
2022-11-06T00:42:35.796Z,58.04
2022-11-06T00:43:37.777Z,57.83
2022-11-06T00:44:39.475Z,58.71
2022-11-06T00:45:41.260Z,59.51
2022-11-06T00:46:43.147Z,60.99
2022-11-06T00:47:44.839Z,61.92
2022-11-06T00:48:47.146Z,62.98
2022-11-06T00:49:49.265Z,64.89
2022-11-06T00:50:51.002Z,65.73
2022-11-06T00:51:52.751Z,65.40
2022-11-06T00:52:55.352Z,64.60
2022-11-06T00:53:59.824Z,63.47
2022-11-06T00:55:01.833Z,62.36
2022-11-06T00:56:09.766Z,61.41
2022-11-06T00:57:11.459Z,60.51
2022-11-06T00:58:13.265Z,60.02
2022-11-06T00:59:15.342Z,59.32
2022-11-06T01:00:20.762Z,58.18
2022-11-06T01:01:28.911Z,57.68
2022-11-06T01:02:30.859Z,58.46
2022-11-06T01:03:32.616Z,59.72
2022-11-06T01:04:34.369Z,60.70
2022-11-06T01:05:36.218Z,61.90
2022-11-06T01:06:43.514Z,63.07
2022-11-06T01:07:45.268Z,64.84
2022-11-06T01:08:48.110Z,65.27
2022-11-06T01:09:49.868Z,64.62
2022-11-06T01:10:53.200Z,63.64
2022-11-06T01:12:14.337Z,62.49
2022-11-06T01:13:17.217Z,61.14
2022-11-06T01:14:20.683Z,60.39
2022-11-06T01:15:22.415Z,59.55
2022-11-06T01:16:25.545Z,58.51
2022-11-06T01:17:28.926Z,57.66
2022-11-06T01:18:30.828Z,57.94
2022-11-06T01:19:32.642Z,58.95
2022-11-06T01:20:34.345Z,60.10
2022-11-06T01:21:39.060Z,61.22
2022-11-06T01:22:40.951Z,62.36
2022-11-06T01:23:43.907Z,63.89
2022-11-06T01:24:45.853Z,64.92
2022-11-06T01:26:01.759Z,64.70
2022-11-06T01:28:26.301Z,62.11
2022-11-06T01:29:28.124Z,61.11
2022-11-06T01:30:29.841Z,60.08
2022-11-06T01:31:33.466Z,59.24
2022-11-06T01:32:35.191Z,58.01
2022-11-06T01:33:37.188Z,57.50
2022-11-06T01:34:39.105Z,58.12
2022-11-06T01:35:49.000Z,59.07
2022-11-06T01:36:50.660Z,60.42
2022-11-06T01:37:52.438Z,61.66
2022-11-06T01:38:58.529Z,62.60
2022-11-06T01:40:00.363Z,64.41
2022-11-06T01:41:02.085Z,65.55
2022-11-06T01:42:03.957Z,65.48
2022-11-06T01:43:14.697Z,64.74
2022-11-06T01:44:41.201Z,63.61
2022-11-06T01:45:47.833Z,62.24
2022-11-06T01:46:49.558Z,61.24
2022-11-06T01:47:51.856Z,60.69
2022-11-06T01:49:00.332Z,60.08
2022-11-06T01:50:08.465Z,59.61
2022-11-06T01:51:13.451Z,58.86
2022-11-06T01:52:17.396Z,57.87
2022-11-06T01:53:19.704Z,58.09
2022-11-06T01:54:24.562Z,59.04
2022-11-06T01:55:32.777Z,60.38
2022-11-06T01:56:37.606Z,61.62
2022-11-06T01:57:39.476Z,63.11
2022-11-06T01:58:44.339Z,64.64
2022-11-06T01:59:48.193Z,65.47
2022-11-06T02:00:50.813Z,64.97
2022-11-06T02:01:52.969Z,63.98
2022-11-06T02:02:55.000Z,62.93
2022-11-06T02:04:03.809Z,61.99
2022-11-06T02:05:06.387Z,60.95
2022-11-06T02:06:10.004Z,60.35
2022-11-06T02:07:13.097Z,59.61
2022-11-06T02:08:18.108Z,58.54
2022-11-06T02:09:20.880Z,57.76
2022-11-06T02:10:23.100Z,58.06
2022-11-06T02:11:25.053Z,59.03
2022-11-06T02:12:57.702Z,60.07
2022-11-06T02:14:14.693Z,61.78
2022-11-06T02:15:43.142Z,63.04
2022-11-06T02:17:09.400Z,65.62
2022-11-06T02:18:25.447Z,65.51
2022-11-06T02:19:46.936Z,64.47
2022-11-06T02:21:24.925Z,63.06
2022-11-06T02:22:56.797Z,61.62
2022-11-06T02:24:21.624Z,60.42
2022-11-06T02:25:52.977Z,59.66
2022-11-06T02:27:22.205Z,58.39
2022-11-06T02:28:35.355Z,58.01
2022-11-06T02:29:55.659Z,59.16
2022-11-06T02:31:05.337Z,60.58
2022-11-06T02:32:18.070Z,61.94
2022-11-06T02:33:37.601Z,63.64
2022-11-06T02:34:55.664Z,64.93
2022-11-06T02:36:23.571Z,64.30
2022-11-06T02:37:36.581Z,62.96
2022-11-06T02:38:46.856Z,61.62
2022-11-06T02:39:55.524Z,60.61
2022-11-06T02:41:04.747Z,59.95
2022-11-06T02:42:11.659Z,59.20
2022-11-06T02:43:17.388Z,57.78
2022-11-06T02:44:25.776Z,57.66
2022-11-06T02:45:32.626Z,58.62
2022-11-06T02:46:48.068Z,59.51
2022-11-06T02:47:54.630Z,60.99
2022-11-06T02:49:04.142Z,62.21
2022-11-06T02:50:15.354Z,64.15
2022-11-06T02:51:25.464Z,65.40
2022-11-06T02:52:34.467Z,65.11
2022-11-06T02:53:41.105Z,64.07
2022-11-06T02:54:51.305Z,62.80
2022-11-06T02:56:00.407Z,61.66
2022-11-06T02:57:08.935Z,60.77
2022-11-06T02:58:33.621Z,60.05
2022-11-06T03:00:05.712Z,59.21
2022-11-06T03:01:25.336Z,57.69
2022-11-06T03:02:56.145Z,57.93
2022-11-06T03:04:10.802Z,59.45
2022-11-06T03:05:21.742Z,61.19
2022-11-06T03:06:29.875Z,62.22
2022-11-06T03:07:39.474Z,64.03
2022-11-06T03:09:14.647Z,65.61
2022-11-06T03:10:17.394Z,65.25
2022-11-06T03:11:25.184Z,64.34
2022-11-06T03:12:38.724Z,63.12
2022-11-06T03:13:54.292Z,61.90
2022-11-06T03:15:05.759Z,60.82
2022-11-06T03:16:23.984Z,59.93
2022-11-06T03:17:31.655Z,58.92
2022-11-06T03:19:05.175Z,57.84
2022-11-06T03:20:29.781Z,58.34
2022-11-06T03:22:05.054Z,59.64
2022-11-06T03:23:18.471Z,61.35
2022-11-06T03:24:31.708Z,62.77
2022-11-06T03:25:47.535Z,64.51
2022-11-06T03:26:53.440Z,64.88
2022-11-06T03:28:15.320Z,64.04
2022-11-06T03:29:19.880Z,62.55
2022-11-06T03:30:21.967Z,61.41
2022-11-06T03:31:36.721Z,60.44
2022-11-06T03:32:54.032Z,59.32
2022-11-06T03:34:05.293Z,57.77
2022-11-06T03:35:30.605Z,57.63
2022-11-06T03:36:44.342Z,58.60
2022-11-06T03:37:57.923Z,59.92
2022-11-06T03:39:06.300Z,61.08
2022-11-06T03:40:15.498Z,62.37
2022-11-06T03:41:36.773Z,63.99
2022-11-06T03:42:41.734Z,64.91
2022-11-06T03:43:47.756Z,64.28
2022-11-06T03:44:59.945Z,63.17
2022-11-06T03:46:06.016Z,61.81
2022-11-06T03:47:24.792Z,60.79
2022-11-06T03:48:34.401Z,59.64
2022-11-06T03:49:43.263Z,58.43
2022-11-06T03:51:03.410Z,57.46
2022-11-06T03:52:43.303Z,58.08
2022-11-06T03:53:52.982Z,59.95
2022-11-06T03:55:07.777Z,61.41
2022-11-06T03:56:33.767Z,62.93
2022-11-06T03:58:01.680Z,64.98
2022-11-06T03:59:08.458Z,64.90
2022-11-06T04:00:12.027Z,63.83
2022-11-06T04:01:19.046Z,62.72
2022-11-06T04:02:26.075Z,61.57
2022-11-06T04:03:51.948Z,60.49
2022-11-06T04:05:10.096Z,59.32
2022-11-06T04:06:32.365Z,57.80
2022-11-06T04:07:41.714Z,57.73
2022-11-06T04:09:05.540Z,58.69
2022-11-06T04:10:30.683Z,60.23
2022-11-06T04:11:55.147Z,61.96
2022-11-06T04:13:47.016Z,63.99
2022-11-06T04:14:54.741Z,64.86
2022-11-06T04:15:56.832Z,63.90
2022-11-06T04:17:03.964Z,62.79
2022-11-06T04:18:17.692Z,61.64
2022-11-06T04:19:22.725Z,60.44
2022-11-06T04:21:01.680Z,59.54
2022-11-06T04:22:39.045Z,57.69
2022-11-06T04:23:46.632Z,57.88
2022-11-06T04:25:21.413Z,58.94
2022-11-06T04:26:35.723Z,60.70
2022-11-06T04:27:54.430Z,62.02
2022-11-06T04:29:18.220Z,63.66
2022-11-06T04:30:20.083Z,64.75
2022-11-06T04:31:43.234Z,64.22
2022-11-06T04:33:00.686Z,62.75
2022-11-06T04:34:24.103Z,61.26
2022-11-06T04:35:37.564Z,60.00
2022-11-06T04:36:49.029Z,58.79
2022-11-06T04:38:29.142Z,57.37
2022-11-06T04:39:51.986Z,57.91
2022-11-06T04:40:56.337Z,59.24
2022-11-06T04:42:19.780Z,60.40
2022-11-06T04:43:31.564Z,61.83
2022-11-06T04:44:39.865Z,63.31
2022-11-06T04:45:48.989Z,64.72
2022-11-06T04:47:04.920Z,64.69
2022-11-06T04:48:08.922Z,63.60
2022-11-06T04:49:13.263Z,62.39
2022-11-06T04:50:19.878Z,61.28
2022-11-06T04:51:28.532Z,60.18
2022-11-06T04:52:30.383Z,59.11
2022-11-06T04:53:34.248Z,57.73
2022-11-06T04:54:36.274Z,57.29
2022-11-06T04:55:46.820Z,57.96
2022-11-06T04:56:48.565Z,59.12
2022-11-06T04:57:50.292Z,60.36
2022-11-06T04:58:53.537Z,61.44
2022-11-06T04:59:56.921Z,62.72
2022-11-06T05:00:58.778Z,64.36
2022-11-06T05:02:00.935Z,65.01
2022-11-06T05:03:02.783Z,64.52
2022-11-06T05:04:04.596Z,63.48
2022-11-06T05:05:06.781Z,62.32
2022-11-06T05:06:08.903Z,61.08
2022-11-06T05:07:13.880Z,60.00
2022-11-06T05:08:20.884Z,58.91
2022-11-06T05:09:23.831Z,57.49
2022-11-06T05:10:25.780Z,57.38
2022-11-06T05:11:27.462Z,58.15
2022-11-06T05:12:29.433Z,59.18
2022-11-06T05:13:31.170Z,60.37
2022-11-06T05:14:33.386Z,61.42
2022-11-06T05:15:35.602Z,62.47
2022-11-06T05:16:37.558Z,64.01
2022-11-06T05:17:39.300Z,64.99
2022-11-06T05:18:41.184Z,64.70
2022-11-06T05:19:42.909Z,63.71
2022-11-06T05:20:44.709Z,62.37
2022-11-06T05:22:45.350Z,61.05
2022-11-06T05:23:47.543Z,59.05
2022-11-06T05:24:49.225Z,57.70
2022-11-06T05:25:50.982Z,57.33
2022-11-06T05:26:58.860Z,58.00
2022-11-06T05:28:05.775Z,59.09
2022-11-06T05:29:07.584Z,60.27
2022-11-06T05:30:09.782Z,61.31
2022-11-06T05:31:11.633Z,62.33
2022-11-06T05:32:13.413Z,63.73
2022-11-06T05:33:15.149Z,64.91
2022-11-06T05:34:16.891Z,64.76
2022-11-06T05:35:20.710Z,63.90
2022-11-06T05:36:22.548Z,62.72
2022-11-06T05:37:24.738Z,61.62
2022-11-06T05:38:26.506Z,60.66
2022-11-06T05:39:28.429Z,59.77
2022-11-06T05:40:30.888Z,58.79
2022-11-06T05:41:32.718Z,57.63
2022-11-06T05:42:38.132Z,57.69
2022-11-06T05:43:39.914Z,58.58
2022-11-06T05:44:41.606Z,59.64
2022-11-06T05:45:43.356Z,60.81
2022-11-06T05:46:49.643Z,61.97
2022-11-06T05:47:51.913Z,63.43
2022-11-06T05:48:53.672Z,64.73
2022-11-06T05:49:55.410Z,64.77
2022-11-06T05:51:02.174Z,63.94
2022-11-06T05:52:04.104Z,62.58
2022-11-06T05:53:05.895Z,61.36
2022-11-06T05:54:07.623Z,60.30
2022-11-06T05:55:14.510Z,59.38
2022-11-06T05:56:17.226Z,57.91
2022-11-06T05:57:19.062Z,57.34
2022-11-06T05:58:20.779Z,57.94
2022-11-06T05:59:22.504Z,58.91
2022-11-06T06:00:24.236Z,60.02
2022-11-06T06:01:26.071Z,61.13
2022-11-06T06:02:27.907Z,62.06
2022-11-06T06:03:29.788Z,63.30
2022-11-06T06:04:31.560Z,64.65
2022-11-06T06:05:33.320Z,64.91
2022-11-06T06:06:35.939Z,64.28
2022-11-06T06:07:37.866Z,63.26
2022-11-06T06:08:39.577Z,62.18
2022-11-06T06:09:41.469Z,61.23
2022-11-06T06:10:44.613Z,60.38
2022-11-06T06:11:46.314Z,59.57
2022-11-06T06:12:51.168Z,58.58
2022-11-06T06:13:52.881Z,57.70
2022-11-06T06:14:54.626Z,58.08
2022-11-06T06:16:01.653Z,59.09
2022-11-06T06:17:03.424Z,60.42
2022-11-06T06:18:06.236Z,61.64
2022-11-06T06:19:07.953Z,62.90
2022-11-06T06:20:10.427Z,64.59
2022-11-06T06:21:12.256Z,65.33
2022-11-06T06:22:14.031Z,64.93
2022-11-06T06:23:15.855Z,64.03
2022-11-06T06:24:17.605Z,62.97
2022-11-06T06:25:22.906Z,61.91
2022-11-06T06:26:24.947Z,60.95
2022-11-06T06:27:27.595Z,60.21
2022-11-06T06:28:29.440Z,59.54
2022-11-06T06:29:31.160Z,58.58
2022-11-06T06:30:33.028Z,57.87
2022-11-06T06:31:34.894Z,58.35
2022-11-06T06:32:36.592Z,59.34
2022-11-06T06:33:38.344Z,60.58
2022-11-06T06:34:40.061Z,61.81
2022-11-06T06:35:41.877Z,63.13
2022-11-06T06:36:43.803Z,64.70
2022-11-06T06:37:53.607Z,65.13
2022-11-06T06:38:55.862Z,64.41
2022-11-06T06:39:57.613Z,63.30
2022-11-06T06:41:04.882Z,62.22
2022-11-06T06:42:06.667Z,61.00
2022-11-06T06:43:08.457Z,60.10
2022-11-06T06:44:10.338Z,59.37
2022-11-06T06:45:12.062Z,58.20
2022-11-06T06:46:13.748Z,57.46
2022-11-06T06:47:19.134Z,57.85
2022-11-06T06:48:20.878Z,58.92
2022-11-06T06:49:22.624Z,60.10
2022-11-06T06:50:24.372Z,61.23
2022-11-06T06:51:26.105Z,62.37
2022-11-06T06:52:27.846Z,63.93
2022-11-06T06:53:30.008Z,65.07
2022-11-06T06:54:31.742Z,64.97
2022-11-06T06:55:33.500Z,64.11
2022-11-06T06:56:35.221Z,63.02
2022-11-06T06:57:36.948Z,61.98
2022-11-06T06:58:38.893Z,61.08
2022-11-06T06:59:40.649Z,60.31
2022-11-06T07:00:42.443Z,59.62
2022-11-06T07:01:44.364Z,58.62
2022-11-06T07:02:46.161Z,57.64
2022-11-06T07:03:47.893Z,57.87
2022-11-06T07:04:49.647Z,58.75
2022-11-06T07:05:51.390Z,60.02
2022-11-06T07:06:54.500Z,61.28
2022-11-06T07:07:57.952Z,62.52
2022-11-06T07:08:59.805Z,64.21
2022-11-06T07:10:01.638Z,65.09
2022-11-06T07:11:07.045Z,64.77
2022-11-06T07:12:08.756Z,63.71
2022-11-06T07:13:10.789Z,62.61
2022-11-06T07:14:13.054Z,61.56
2022-11-06T07:15:15.228Z,60.66
2022-11-06T07:16:17.064Z,59.89
2022-11-06T07:17:18.784Z,59.10
2022-11-06T07:18:20.874Z,57.96
2022-11-06T07:19:22.738Z,57.82
2022-11-06T07:20:24.665Z,58.55
2022-11-06T07:21:26.396Z,59.57
2022-11-06T07:22:35.527Z,60.66
2022-11-06T07:23:39.035Z,61.86
2022-11-06T07:24:40.837Z,63.06
2022-11-06T07:25:42.799Z,64.61
2022-11-06T07:26:44.862Z,65.04
2022-11-06T07:27:46.592Z,64.41
2022-11-06T07:28:48.375Z,63.35
2022-11-06T07:29:50.116Z,62.24
2022-11-06T07:30:51.912Z,61.11
2022-11-06T07:31:53.664Z,60.16
2022-11-06T07:32:55.427Z,59.35
2022-11-06T07:33:57.109Z,58.14
2022-11-06T07:34:58.862Z,57.62
2022-11-06T07:36:09.741Z,58.20
2022-11-06T07:37:11.452Z,59.35
2022-11-06T07:38:13.454Z,60.43
2022-11-06T07:39:15.388Z,61.49
2022-11-06T07:40:17.302Z,62.10
2022-11-06T07:41:19.034Z,63.50
2022-11-06T07:42:20.717Z,64.83
2022-11-06T07:43:33.526Z,64.83
2022-11-06T07:44:35.588Z,63.95
2022-11-06T07:45:38.899Z,62.92
2022-11-06T07:46:40.624Z,61.80
2022-11-06T07:47:42.393Z,60.91
2022-11-06T07:48:44.120Z,60.15
2022-11-06T07:49:50.730Z,59.46
2022-11-06T07:50:52.978Z,58.25
2022-11-06T07:51:54.641Z,57.67
2022-11-06T07:52:56.955Z,58.19
2022-11-06T07:53:58.643Z,59.10
2022-11-06T07:55:00.599Z,60.02
2022-11-06T07:56:02.759Z,61.01
2022-11-06T07:57:04.509Z,62.27
2022-11-06T07:58:06.215Z,63.84
2022-11-06T07:59:07.933Z,64.96
2022-11-06T08:00:10.691Z,64.81
2022-11-06T08:01:18.966Z,63.84
2022-11-06T08:02:21.174Z,62.69
2022-11-06T08:03:25.122Z,61.50
2022-11-06T08:04:26.871Z,60.45
2022-11-06T08:05:28.587Z,59.68
2022-11-06T08:06:30.427Z,58.91
2022-11-06T08:07:32.157Z,57.83
2022-11-06T08:08:33.874Z,57.83
2022-11-06T08:09:35.988Z,58.54
2022-11-06T08:10:40.548Z,59.37
2022-11-06T08:11:43.000Z,60.22
2022-11-06T08:12:44.718Z,61.51
2022-11-06T08:13:46.412Z,62.66
2022-11-06T08:14:48.164Z,64.07
2022-11-06T08:15:49.931Z,64.69
2022-11-06T08:16:51.748Z,64.21
2022-11-06T08:17:53.891Z,63.24
2022-11-06T08:18:55.990Z,62.26
2022-11-06T08:19:57.734Z,61.26
2022-11-06T08:20:59.651Z,60.42
2022-11-06T08:22:01.768Z,59.46
2022-11-06T08:23:05.955Z,58.27
2022-11-06T08:24:07.776Z,57.65
2022-11-06T08:25:09.803Z,58.15
2022-11-06T08:26:12.599Z,59.10
2022-11-06T08:27:14.318Z,60.14
2022-11-06T08:28:16.216Z,61.17
2022-11-06T08:29:18.290Z,62.19
2022-11-06T08:30:20.042Z,63.37
2022-11-06T08:31:21.861Z,64.39
2022-11-06T08:32:23.754Z,64.25
2022-11-06T08:33:25.574Z,63.28
2022-11-06T08:34:27.317Z,62.09
2022-11-06T08:35:29.316Z,60.97
2022-11-06T08:36:31.248Z,59.95
2022-11-06T08:37:33.025Z,58.61
2022-11-06T08:38:35.431Z,57.08
2022-11-06T08:39:37.392Z,56.83
2022-11-06T08:40:39.987Z,57.43
2022-11-06T08:41:42.078Z,58.36
2022-11-06T08:42:44.184Z,59.45
2022-11-06T08:43:45.972Z,60.58
2022-11-06T08:44:47.736Z,61.53
2022-11-06T08:45:49.436Z,62.50
2022-11-06T08:46:52.323Z,63.83
2022-11-06T08:47:54.273Z,64.46
2022-11-06T08:48:55.980Z,63.86
2022-11-06T08:49:58.106Z,62.74
2022-11-06T08:50:59.929Z,61.40
2022-11-06T08:52:01.612Z,59.79
2022-11-06T08:53:04.378Z,58.23
2022-11-06T08:54:06.541Z,56.89
2022-11-06T08:55:08.664Z,56.79
2022-11-06T08:56:10.357Z,57.57
2022-11-06T08:57:12.023Z,58.38
2022-11-06T08:58:14.108Z,59.18
2022-11-06T08:59:15.847Z,59.90
2022-11-06T09:00:17.883Z,60.94
2022-11-06T09:01:19.780Z,61.78
2022-11-06T09:02:21.669Z,62.08
2022-11-06T09:03:23.517Z,62.95
2022-11-06T09:04:25.203Z,64.11
2022-11-06T09:05:27.999Z,64.09
2022-11-06T09:06:29.847Z,63.04
2022-11-06T09:07:31.626Z,61.37
2022-11-06T09:08:33.319Z,60.32
2022-11-06T09:09:35.115Z,58.59
2022-11-06T09:10:39.088Z,56.77
2022-11-06T09:11:40.810Z,56.38
2022-11-06T09:12:42.498Z,56.69
2022-11-06T09:13:44.478Z,57.50
2022-11-06T09:14:46.172Z,58.23
2022-11-06T09:15:47.860Z,58.83
2022-11-06T09:16:49.566Z,59.05
2022-11-06T09:17:51.799Z,59.98
2022-11-06T09:18:57.503Z,60.44
2022-11-06T09:19:59.384Z,61.37
2022-11-06T09:21:01.182Z,62.16
2022-11-06T09:22:02.879Z,62.51
2022-11-06T09:23:06.993Z,63.64
2022-11-06T09:24:09.188Z,64.21
2022-11-06T09:25:11.627Z,63.75
2022-11-06T09:26:13.329Z,62.21
2022-11-06T09:27:15.159Z,60.87
2022-11-06T09:28:17.028Z,59.54
2022-11-06T09:29:18.716Z,58.03
2022-11-06T09:30:22.974Z,56.21
2022-11-06T09:31:24.681Z,55.92
2022-11-06T09:32:26.363Z,56.35
2022-11-06T09:33:28.061Z,57.26
2022-11-06T09:34:30.191Z,58.27
2022-11-06T09:35:34.075Z,59.00
2022-11-06T09:36:36.420Z,59.65
2022-11-06T09:37:38.140Z,60.34
2022-11-06T09:38:39.831Z,60.85
2022-11-06T09:39:41.714Z,61.46
2022-11-06T09:40:49.107Z,62.06
2022-11-06T09:42:49.280Z,62.87
2022-11-06T09:44:19.234Z,64.50
2022-11-06T09:45:26.709Z,63.36
2022-11-06T09:46:45.679Z,61.23
2022-11-06T09:48:00.187Z,60.07
2022-11-06T09:49:13.608Z,58.06
2022-11-06T09:50:22.298Z,56.14
2022-11-06T09:51:42.063Z,56.05
2022-11-06T09:52:51.755Z,57.02
2022-11-06T09:54:01.369Z,58.32
2022-11-06T09:55:10.851Z,59.34
2022-11-06T09:56:14.657Z,59.37
2022-11-06T09:57:21.785Z,60.03
2022-11-06T09:58:32.950Z,60.18
2022-11-06T09:59:37.465Z,60.68
2022-11-06T10:00:40.381Z,61.30
2022-11-06T10:01:47.670Z,61.67
2022-11-06T10:03:02.669Z,61.96
2022-11-06T10:04:05.844Z,62.87
2022-11-06T10:05:21.892Z,63.95
2022-11-06T10:06:25.765Z,63.74
2022-11-06T10:07:33.436Z,62.56
2022-11-06T10:08:35.634Z,60.71
2022-11-06T10:09:37.473Z,59.26
2022-11-06T10:10:50.483Z,57.31
2022-11-06T10:12:05.093Z,56.14
2022-11-06T10:13:27.088Z,55.92
2022-11-06T10:14:47.557Z,56.28
2022-11-06T10:16:22.502Z,56.59
2022-11-06T10:18:05.939Z,57.05
2022-11-06T10:19:34.774Z,58.24
2022-11-06T10:20:54.957Z,58.85
2022-11-06T10:22:16.469Z,59.47
2022-11-06T10:23:27.062Z,59.95
2022-11-06T10:24:44.131Z,60.32
2022-11-06T10:26:05.022Z,60.71
2022-11-06T10:27:18.794Z,60.38
2022-11-06T10:28:40.109Z,60.22
2022-11-06T10:30:18.934Z,60.55
2022-11-06T10:31:48.298Z,60.88
2022-11-06T10:33:27.508Z,60.90
2022-11-06T10:34:36.148Z,61.11
2022-11-06T10:35:47.213Z,60.88
2022-11-06T10:36:55.304Z,60.78
2022-11-06T10:38:18.239Z,60.91
2022-11-06T10:39:25.084Z,60.87
2022-11-06T10:40:31.520Z,60.92
2022-11-06T10:41:38.011Z,60.69
2022-11-06T10:42:41.990Z,60.42
2022-11-06T10:43:53.092Z,60.34
2022-11-06T10:45:05.841Z,60.25
2022-11-06T10:46:25.163Z,60.10
2022-11-06T10:47:43.461Z,59.70
2022-11-06T10:48:52.055Z,59.43
2022-11-06T10:50:01.788Z,59.48
2022-11-06T10:51:42.049Z,59.72
2022-11-06T10:52:51.540Z,60.34
2022-11-06T10:54:29.680Z,60.13
2022-11-06T10:55:44.512Z,59.24
2022-11-06T10:57:20.859Z,58.77
2022-11-06T10:58:28.057Z,58.79
2022-11-06T10:59:30.276Z,58.87
2022-11-06T11:00:33.857Z,58.72
2022-11-06T11:01:38.349Z,58.77
2022-11-06T11:02:58.515Z,58.71
2022-11-06T11:04:01.068Z,58.80
2022-11-06T11:05:02.929Z,59.37
2022-11-06T11:06:05.444Z,59.04
2022-11-06T11:07:20.543Z,58.71
2022-11-06T11:08:40.435Z,58.41
2022-11-06T11:09:42.443Z,56.64
2022-11-06T11:10:55.903Z,55.65
2022-11-06T11:12:05.930Z,54.94
2022-11-06T11:13:20.921Z,54.82
2022-11-06T11:14:26.236Z,54.27
2022-11-06T11:15:33.671Z,54.28
2022-11-06T11:16:39.975Z,54.20
2022-11-06T11:17:43.213Z,54.70
2022-11-06T11:18:49.882Z,54.71
2022-11-06T11:19:51.567Z,54.68
2022-11-06T11:21:27.788Z,54.72
2022-11-06T11:22:33.114Z,54.84
2022-11-06T11:23:35.218Z,54.91
2022-11-06T11:24:36.894Z,55.19
2022-11-06T11:25:38.654Z,55.13
2022-11-06T11:26:47.172Z,53.91
2022-11-06T11:27:49.015Z,52.92
2022-11-06T11:28:55.361Z,53.14
2022-11-06T11:29:58.366Z,53.29
2022-11-06T11:31:13.613Z,53.28
2022-11-06T11:32:20.063Z,53.09
2022-11-06T11:33:26.173Z,52.81
2022-11-06T11:34:32.665Z,52.71
2022-11-06T11:35:36.576Z,52.66
2022-11-06T11:37:21.892Z,52.43
2022-11-06T11:38:26.011Z,51.93
2022-11-06T11:39:34.388Z,51.52
2022-11-06T11:40:38.533Z,51.59
2022-11-06T11:41:40.250Z,51.78
2022-11-06T11:42:41.992Z,51.90
2022-11-06T11:43:44.081Z,51.99
2022-11-06T11:44:45.833Z,52.23
2022-11-06T11:46:17.617Z,52.02
2022-11-06T11:47:24.537Z,51.57
2022-11-06T11:48:26.313Z,51.24
2022-11-06T11:49:33.812Z,50.83
2022-11-06T11:50:36.286Z,50.15
2022-11-06T11:51:44.866Z,50.18
2022-11-06T11:52:52.821Z,50.31
2022-11-06T11:54:06.589Z,50.15
2022-11-06T11:55:18.848Z,49.99
2022-11-06T11:56:49.611Z,49.61
2022-11-06T11:57:48.735Z,48.77
2022-11-06T11:58:55.160Z,48.50
2022-11-06T12:00:05.634Z,49.37
2022-11-06T12:01:09.243Z,49.73
2022-11-06T12:02:27.902Z,49.21
2022-11-06T12:03:52.285Z,48.69
2022-11-06T12:04:59.884Z,48.64
2022-11-06T12:06:12.702Z,47.25
2022-11-06T12:07:32.585Z,47.31
2022-11-06T12:08:34.892Z,47.79
2022-11-06T12:09:44.227Z,47.24
2022-11-06T12:10:46.465Z,46.60
2022-11-06T12:11:48.577Z,45.73
2022-11-06T12:12:53.007Z,45.67
2022-11-06T12:14:26.231Z,45.12
2022-11-06T12:15:31.453Z,44.83
2022-11-06T12:16:33.171Z,44.71
2022-11-06T12:17:40.571Z,43.67
2022-11-06T12:18:55.971Z,43.96
2022-11-06T12:20:03.368Z,43.77
2022-11-06T12:21:20.032Z,43.19
2022-11-06T12:22:33.900Z,43.40
2022-11-06T12:23:51.514Z,43.50
2022-11-06T12:25:00.891Z,43.80
2022-11-06T12:26:22.658Z,43.88
2022-11-06T12:27:34.747Z,43.48
2022-11-06T12:28:40.937Z,43.07
2022-11-06T12:30:03.312Z,42.89
2022-11-06T12:31:25.988Z,42.78
2022-11-06T12:33:01.245Z,42.19
2022-11-06T12:34:16.972Z,43.15
2022-11-06T12:35:37.680Z,42.75
2022-11-06T12:36:46.367Z,42.83
2022-11-06T12:37:59.923Z,43.21
2022-11-06T12:39:10.418Z,43.74
2022-11-06T12:40:25.075Z,44.00
2022-11-06T12:41:32.104Z,44.07
2022-11-06T12:42:36.209Z,44.21
2022-11-06T12:43:42.774Z,44.68
2022-11-06T12:44:47.781Z,44.83
2022-11-06T12:46:02.728Z,45.05
2022-11-06T12:47:41.587Z,44.66
2022-11-06T12:49:08.403Z,43.94
2022-11-06T12:50:36.549Z,43.61
2022-11-06T12:52:09.219Z,43.27
2022-11-06T12:53:31.745Z,42.97
2022-11-06T12:55:00.827Z,43.03
2022-11-06T12:56:47.053Z,42.93
2022-11-06T12:58:15.364Z,42.88
2022-11-06T12:59:36.543Z,42.66
2022-11-06T13:01:11.789Z,42.72
2022-11-06T13:02:22.632Z,42.37
2022-11-06T13:04:00.754Z,42.30
2022-11-06T13:05:15.325Z,41.66
2022-11-06T13:06:55.572Z,41.31
2022-11-06T13:08:15.835Z,41.36
2022-11-06T13:09:26.574Z,41.57
2022-11-06T13:10:31.236Z,42.09
2022-11-06T13:11:47.044Z,42.18
2022-11-06T13:13:15.107Z,41.72
2022-11-06T13:14:30.517Z,41.49
2022-11-06T13:15:49.696Z,41.30
2022-11-06T13:17:17.564Z,41.56
2022-11-06T13:18:28.077Z,41.89
2022-11-06T13:19:48.764Z,42.09
2022-11-06T13:21:06.664Z,42.09
2022-11-06T13:22:36.004Z,41.90
2022-11-06T13:23:47.989Z,41.64
2022-11-06T13:25:15.300Z,41.42
2022-11-06T13:26:36.331Z,41.20
2022-11-06T13:28:28.498Z,40.58
2022-11-06T13:29:31.311Z,40.29
2022-11-06T13:30:38.408Z,40.51
2022-11-06T13:31:47.057Z,40.57
2022-11-06T13:33:17.335Z,40.76
2022-11-06T13:34:29.140Z,40.61
2022-11-06T13:35:35.271Z,40.83
2022-11-06T13:36:37.726Z,40.66
2022-11-06T13:37:43.843Z,40.45
2022-11-06T13:38:55.284Z,40.38
2022-11-06T13:40:06.696Z,40.29
2022-11-06T13:41:17.871Z,39.78
2022-11-06T13:42:36.496Z,39.69
2022-11-06T13:43:48.592Z,39.38
2022-11-06T13:44:53.365Z,39.27
2022-11-06T13:46:24.172Z,39.28
2022-11-06T13:48:01.319Z,39.39
2022-11-06T13:49:38.637Z,39.60
2022-11-06T13:51:09.853Z,39.42
2022-11-06T13:52:40.113Z,39.61
2022-11-06T13:53:48.903Z,39.67
2022-11-06T13:55:25.248Z,39.69
2022-11-06T13:56:58.039Z,39.71
2022-11-06T13:58:17.818Z,39.83
2022-11-06T13:59:34.424Z,40.27
2022-11-06T14:00:59.083Z,40.54
2022-11-06T14:02:06.827Z,41.11
2022-11-06T14:03:52.824Z,40.99
2022-11-06T14:05:38.231Z,41.07
2022-11-06T14:06:42.465Z,41.65
2022-11-06T14:07:47.334Z,42.17
2022-11-06T14:09:18.358Z,42.10
2022-11-06T14:10:24.138Z,42.50
2022-11-06T14:11:30.955Z,42.79
2022-11-06T14:12:32.822Z,42.97
2022-11-06T14:13:36.301Z,43.26
2022-11-06T14:14:38.186Z,43.54
2022-11-06T14:15:41.925Z,43.80
2022-11-06T14:16:43.695Z,44.19
2022-11-06T14:18:04.319Z,44.52
2022-11-06T14:19:23.651Z,44.89
2022-11-06T14:20:37.857Z,45.30
2022-11-06T14:21:39.432Z,45.75
2022-11-06T14:22:41.122Z,46.00
2022-11-06T14:23:43.443Z,46.23
2022-11-06T14:24:45.175Z,46.52
2022-11-06T14:25:59.803Z,46.80
2022-11-06T14:27:06.670Z,47.02
2022-11-06T14:28:09.426Z,47.30
2022-11-06T14:29:41.716Z,47.85
2022-11-06T14:31:11.685Z,48.40
2022-11-06T14:32:10.688Z,48.78
2022-11-06T14:33:41.895Z,49.15
2022-11-06T14:34:44.024Z,49.40
2022-11-06T14:35:50.122Z,49.87
2022-11-06T14:36:51.858Z,50.18
2022-11-06T14:38:09.878Z,50.34
2022-11-06T14:39:13.577Z,50.69
2022-11-06T14:40:15.380Z,51.13
2022-11-06T14:41:35.286Z,51.54
2022-11-06T14:42:44.189Z,52.05
2022-11-06T14:43:52.665Z,52.45
2022-11-06T14:45:08.886Z,52.85
2022-11-06T14:46:23.749Z,53.26
2022-11-06T14:47:32.069Z,53.61